This is the latest recevied weather packets stored in our database for station/object N8ASV. If no packets are shown the sender has not sent any weather packets the latest 10 day(s).
| Time | Temp. | Humidity | Pressure | Rain* | Wind** | Luminosity | Snow |
|---|---|---|---|---|---|---|---|
| 1777670116 | 12.22° C | 56% | 1013.6 hPa | 0 mm | - | - | - |
| 1777667116 | 12.78° C | 59% | 1013.5 hPa | 0 mm | - | - | - |
| 1777665017 | 11.67° C | 58% | 1013.4 hPa | 0 mm | - | - | - |
| 1777664417 | 12.22° C | 58% | 1013.6 hPa | 0 mm | - | - | - |
| 1777659017 | 12.22° C | 63% | 1013.1 hPa | 0 mm | - | - | - |
| 1777658417 | 11.67° C | 62% | 1013 hPa | 0 mm | - | - | - |
| 1777656016 | 12.78° C | 66% | 1012.5 hPa | 0 mm | - | - | - |
| 1777650016 | 11.11° C | 80% | 1011.3 hPa | 0 mm | - | - | - |
| 1777644616 | 8.89° C | 84% | 1010.8 hPa | 0.76 mm | - | - | - |
| 1777642816 | 9.44° C | 76% | 1010.8 hPa | 0 mm | - | - | - |
| 1777642216 | 9.44° C | 75% | 1010.7 hPa | 0 mm | - | - | - |
| 1777634417 | 8.33° C | 77% | 1010.4 hPa | 0 mm | - | - | - |
| 1777624817 | 7.22° C | 85% | 1011.3 hPa | 0 mm | - | - | - |
| 1777611016 | 5° C | 89% | 1012.8 hPa | 0 mm | - | - | - |
| 1777604417 | 6.11° C | 85% | 1013.7 hPa | 0 mm | - | - | - |
| 1777602057 | 6.67° C | 84% | 1013.9 hPa | 0 mm | - | - | - |
| 1777588216 | 14.44° C | 46% | 1013.6 hPa | 0 mm | - | - | - |
| 1777587616 | 14.44° C | 47% | 1013.5 hPa | 0 mm | - | - | - |
| 1777583416 | 15° C | 42% | 1013.8 hPa | 0 mm | - | - | - |
| 1777580416 | 15° C | 50% | 1014.1 hPa | 0 mm | - | - | - |
| 1777578616 | 15.56° C | 45% | 1014.1 hPa | 0 mm | - | - | - |
| 1777575017 | 15° C | 56% | 1014.7 hPa | 0 mm | - | - | - |
| 1777564817 | 12.78° C | 63% | 1015.4 hPa | 0 mm | - | - | - |
| 1777563017 | 12.22° C | 65% | 1015.6 hPa | 0 mm | - | - | - |
| 1777552816 | 6.67° C | 80% | 1014.8 hPa | 0 mm | - | - | - |
* Rain latest hour (hover to see other rain measurements)
** Current wind speed in m/s (hover to see current wind gust speed)